Date,TemperatureHighF,TemperatureAvgF,TemperatureLowF,DewpointHighF,DewpointAvgF,DewpointLowF,HumidityHigh,HumidityAvg,HumidityLow,PressureMaxIn,PressureMinIn,WindSpeedMaxMPH,WindSpeedAvgMPH,GustSpeedMaxMPH,PrecipitationSumIn
2013-2-1,66.9,53.2,41.7,24.4,17.1,11.0,32,24,19,30.23,30.14,12,3,12,0.00
2013-2-2,71.4,56.4,43.7,26.9,17.3,9.9,28,21,18,30.29,30.17,10,2,10,0.00
2013-2-3,75.2,56.9,51.1,28.7,17.5,13.5,25,21,18,30.17,29.99,19,5,19,0.00
2013-2-4,72.7,56.2,44.6,28.1,16.8,8.7,27,21,18,30.11,29.96,13,2,13,0.00
2013-2-5,67.6,56.4,40.3,25.2,16.3,5.4,23,20,18,30.02,29.84,13,4,13,0.00
2013-2-6,70.2,59.2,47.7,26.8,18.1,10.3,22,20,18,30.02,29.81,25,9,25,0.00
2013-2-7,64.9,53.5,37.6,23.3,14.2,4.1,24,21,18,30.08,29.75,18,5,18,0.00
2013-2-8,53.1,48.9,46.9,14.2,10.9,10.1,22,21,21,29.75,29.67,26,9,26,0.00
2013-2-9,48.4,48.4,48.4,10.3,10.3,10.3,21,21,21,29.72,29.72,10,10,15,0.00
2013-2-10,52.0,47.2,41.4,13.3,10.1,6.4,28,22,21,29.99,29.72,13,9,16,0.00
2013-2-11,53.1,43.3,35.4,14.2,7.8,2.7,26,23,21,30.17,29.99,29,11,29,0.00
2013-2-12,56.8,43.9,32.2,16.2,8.0,0.3,25,23,20,30.29,30.17,13,3,13,0.00
2013-2-13,63.5,45.0,35.4,22.9,8.7,2.4,25,22,18,30.26,30.11,10,2,10,0.00
2013-2-14,70.5,56.1,43.0,26.8,16.2,7.6,23,21,18,30.26,30.11,24,6,24,0.00
2013-2-15,69.6,54.9,42.8,26.8,15.6,7.6,23,21,18,30.35,30.26,17,3,17,0.00
2013-2-16,66.2,52.5,39.9,24.0,13.8,5.1,23,21,18,30.32,29.96,12,3,12,0.00
2013-2-17,73.0,56.5,39.7,28.4,16.5,5.0,23,21,18,29.96,29.78,25,7,25,0.00
2013-2-18,61.9,49.0,38.8,19.2,11.1,4.5,24,21,19,30.05,29.84,15,3,15,0.00
2013-2-19,62.2,51.0,37.4,19.5,12.4,3.9,24,21,19,29.84,29.52,24,6,24,0.00
2013-2-20,58.6,47.8,41.2,24.1,16.8,7.0,50,30,19,29.82,27.23,25,8,25,0.00
2013-2-21,58.8,45.1,35.2,20.7,11.1,2.4,50,26,19,30.02,29.82,23,4,23,0.00
2013-2-22,58.8,46.9,34.2,16.4,9.7,2.0,25,22,19,30.11,29.99,18,4,18,0.00
2013-2-23,64.9,47.8,35.6,23.5,10.4,2.4,24,22,18,30.05,29.82,32,9,32,0.00
2013-2-24,58.1,46.9,38.7,16.4,9.7,4.5,24,22,19,30.17,30.02,32,14,32,0.00
2013-2-25,58.5,45.9,31.6,16.4,9.2,-0.1,25,22,19,30.20,29.96,14,2,14,0.00
2013-2-26,61.2,49.0,35.8,18.5,11.0,2.5,24,21,19,30.20,29.99,23,6,23,0.00
2013-2-27,65.3,47.6,32.2,23.5,10.4,0.3,25,22,18,30.32,30.20,18,4,18,0.00
2013-2-28,66.9,50.6,35.1,24.6,12.4,2.4,25,21,18,30.38,30.26,11,3,11,0.00